Time;durP1;ratioP1;P1;durP2;ratioP2;P2;SDS_P1;SDS_P2;PMS_P1;PMS_P2;Temp;Humidity;BMP_temperature;BMP_pressure;BME280_temperature;BME280_humidity;BME280_pressure;Samples;Min_cycle;Max_cycle;Signal;HPM_P1;HPM_P2
2023/04/20 00:01:03;;;;;;;10.35;4.82;;;5.60;99.90;;;5.39;100.00;101277.75;5070531;28;20040;-73
2023/04/20 00:03:31;;;;;;;8.85;4.75;;;5.60;99.90;;;5.29;100.00;101270.63;5065460;28;20082;-72
2023/04/20 00:06:00;;;;;;;8.75;4.63;;;5.50;99.90;;;5.36;100.00;101283.50;5055646;28;20041;-73
2023/04/20 00:08:27;;;;;;;6.97;4.68;;;5.50;99.90;;;5.38;100.00;101284.19;5063864;28;20126;-73
2023/04/20 00:10:53;;;;;;;11.70;5.07;;;5.50;99.90;;;5.33;100.00;101274.72;5064924;28;20082;-73
2023/04/20 00:13:19;;;;;;;7.25;4.82;;;5.50;99.90;;;5.29;100.00;101265.22;5055903;28;20479;-72
2023/04/20 00:15:44;;;;;;;9.73;4.60;;;5.40;99.90;;;5.30;100.00;101260.66;5071473;28;20047;-73
2023/04/20 00:18:10;;;;;;;7.32;4.30;;;5.40;99.90;;;5.29;100.00;101258.97;5063649;28;20393;-72
2023/04/20 00:20:37;;;;;;;8.57;4.65;;;5.40;99.90;;;5.33;100.00;101263.03;5053360;28;20041;-73
2023/04/20 00:23:03;;;;;;;10.20;4.85;;;5.40;99.90;;;5.30;100.00;101258.81;5061455;28;20408;-72
2023/04/20 00:25:30;;;;;;;10.95;4.63;;;5.40;99.90;;;5.21;100.00;101250.84;5056062;28;20037;-73
2023/04/20 00:27:56;;;;;;;12.20;4.65;;;5.40;99.90;;;5.28;100.00;101258.13;5060921;28;20369;-72
2023/04/20 00:30:22;;;;;;;10.23;5.20;;;5.30;99.90;;;5.25;100.00;101253.03;5058734;28;20040;-72
2023/04/20 00:32:48;;;;;;;10.13;4.30;;;5.40;99.90;;;5.19;100.00;101237.47;5055604;28;20036;-73
2023/04/20 00:35:13;;;;;;;8.35;4.50;;;5.40;99.90;;;5.18;100.00;101254.72;5067806;28;20032;-72
2023/04/20 00:37:39;;;;;;;7.50;4.55;;;5.30;99.90;;;5.23;100.00;101254.25;5057817;28;20400;-72
2023/04/20 00:40:06;;;;;;;11.60;5.13;;;5.30;99.90;;;5.13;100.00;101244.41;5058635;28;20812;-71
2023/04/20 00:42:32;;;;;;;11.00;4.75;;;5.30;99.90;;;5.11;100.00;101234.78;5065402;28;20051;-71
2023/04/20 00:44:58;;;;;;;11.05;5.25;;;5.30;99.90;;;5.12;100.00;101244.59;5060071;28;20033;-72
2023/04/20 00:47:24;;;;;;;8.15;4.65;;;5.30;99.90;;;5.14;100.00;101250.66;5055099;28;20695;-72
2023/04/20 00:49:53;;;;;;;9.77;4.60;;;5.30;99.90;;;5.17;100.00;101239.50;5050494;28;20036;-71
2023/04/20 00:52:20;;;;;;;10.68;5.10;;;5.30;99.90;;;5.19;100.00;101234.78;5067041;28;20068;-72
2023/04/20 00:54:46;;;;;;;8.38;4.68;;;5.30;99.90;;;5.25;100.00;101234.09;5065122;28;20037;-73
2023/04/20 00:57:13;;;;;;;8.38;4.50;;;5.30;99.90;;;5.14;100.00;101226.31;5064052;28;20082;-73
2023/04/20 00:59:42;;;;;;;10.70;4.70;;;5.30;99.90;;;5.24;100.00;101240.53;5056718;28;20207;-73
2023/04/20 01:02:08;;;;;;;12.63;4.80;;;5.30;99.90;;;5.30;100.00;101239.88;5082433;28;20087;-73
2023/04/20 01:04:38;;;;;;;13.98;4.97;;;5.30;99.90;;;5.25;100.00;101234.09;5063493;28;20044;-73
2023/04/20 01:07:04;;;;;;;8.13;5.00;;;5.30;99.90;;;5.15;100.00;101217.19;5059629;28;20036;-73
2023/04/20 01:09:30;;;;;;;11.23;4.45;;;5.30;99.90;;;5.20;100.00;101212.13;5062773;28;20072;-73
2023/04/20 01:11:56;;;;;;;9.98;4.85;;;5.30;99.90;;;5.25;100.00;101220.56;5052509;28;20044;-73
2023/04/20 01:14:21;;;;;;;13.40;5.43;;;5.30;99.90;;;5.20;100.00;101216.69;5054777;28;20056;-73
2023/04/20 01:16:48;;;;;;;17.00;5.22;;;5.30;99.90;;;5.16;100.00;101205.34;5066468;28;20039;-73
2023/04/20 01:19:14;;;;;;;10.70;5.03;;;5.30;99.90;;;5.17;100.00;101207.91;5063742;28;20222;-73
2023/04/20 01:21:40;;;;;;;11.02;5.00;;;5.30;99.90;;;5.21;100.00;101205.69;5056129;28;20587;-73
2023/04/20 01:24:06;;;;;;;9.80;5.07;;;5.30;99.90;;;5.14;100.00;101202.81;5056889;28;20036;-73
2023/04/20 01:26:31;;;;;;;14.55;4.97;;;5.30;99.90;;;5.11;100.00;101200.44;5064246;28;20131;-73
2023/04/20 01:28:57;;;;;;;12.40;5.13;;;5.30;99.90;;;5.06;100.00;101191.16;5064642;28;20036;-73
2023/04/20 01:31:23;;;;;;;10.23;4.68;;;5.30;99.90;;;5.10;100.00;101187.94;5062736;28;20037;-73
2023/04/20 01:33:49;;;;;;;9.27;4.75;;;5.30;99.90;;;5.09;100.00;101182.72;5063720;28;20029;-73
2023/04/20 01:36:15;;;;;;;12.30;4.97;;;5.30;99.90;;;5.16;100.00;101186.41;5068072;28;20437;-73
2023/04/20 01:38:44;;;;;;;10.27;5.30;;;5.30;99.90;;;5.20;100.00;101182.38;5069938;28;20028;-73
2023/04/20 01:41:10;;;;;;;12.88;5.20;;;5.30;99.90;;;5.22;100.00;101174.91;5050977;28;20506;-73
2023/04/20 01:43:38;;;;;;;14.52;5.60;;;5.30;99.90;;;5.20;100.00;101171.53;5080808;28;20553;-73
2023/04/20 01:46:05;;;;;;;11.43;5.07;;;5.30;99.90;;;5.18;100.00;101169.03;5064537;28;22053;-72
2023/04/20 01:48:32;;;;;;;11.48;4.97;;;5.30;99.90;;;5.18;100.00;101166.31;5068778;28;20043;-73
2023/04/20 01:50:58;;;;;;;12.40;5.25;;;5.30;99.90;;;5.27;100.00;101169.84;5061909;28;20072;-73
2023/04/20 01:53:24;;;;;;;11.00;5.05;;;5.30;99.90;;;5.12;100.00;101139.91;5061294;28;20056;-73
2023/04/20 01:55:50;;;;;;;10.95;5.15;;;5.40;99.90;;;5.28;100.00;101173.41;5056931;28;20048;-72
2023/04/20 01:58:16;;;;;;;13.50;5.43;;;5.30;99.90;;;5.34;100.00;101175.44;5058792;28;20039;-72
2023/04/20 02:00:43;;;;;;;9.63;5.00;;;5.40;99.90;;;5.37;100.00;101176.97;5072491;28;20037;-73
2023/04/20 02:03:09;;;;;;;9.48;5.40;;;5.40;99.90;;;5.29;100.00;101162.41;5082773;28;20028;-73
2023/04/20 02:05:35;;;;;;;12.75;5.60;;;5.30;99.90;;;5.36;100.00;101170.69;5068883;28;20044;-73
2023/04/20 02:08:01;;;;;;;11.27;5.60;;;5.40;99.90;;;5.32;100.00;101162.09;5058474;28;20045;-73
2023/04/20 02:10:27;;;;;;;10.95;5.47;;;5.40;99.90;;;5.28;100.00;101168.81;5053411;28;20036;-73
2023/04/20 02:12:53;;;;;;;11.82;5.80;;;5.40;99.90;;;5.39;100.00;101169.53;5059478;28;20484;-73
2023/04/20 02:15:18;;;;;;;12.00;6.00;;;5.40;99.90;;;5.37;100.00;101158.03;5061577;28;20128;-73
2023/04/20 02:17:44;;;;;;;10.20;5.63;;;5.40;99.90;;;5.41;100.00;101152.09;5050991;28;20037;-73
2023/04/20 02:20:11;;;;;;;12.05;5.47;;;5.40;99.90;;;5.42;100.00;101155.66;5069353;28;20037;-73
2023/04/20 02:22:37;;;;;;;11.02;5.90;;;5.40;99.90;;;5.43;100.00;101154.63;5051592;28;20033;-73
2023/04/20 02:25:04;;;;;;;16.63;6.40;;;5.40;99.90;;;5.45;100.00;101150.75;5062309;28;20045;-73
2023/04/20 02:27:31;;;;;;;11.48;5.78;;;5.40;99.90;;;5.41;100.00;101151.25;5049588;28;20045;-73
2023/04/20 02:29:59;;;;;;;14.45;6.38;;;5.40;99.90;;;5.50;100.00;101149.38;5060621;28;20479;-72
2023/04/20 02:32:26;;;;;;;11.93;6.30;;;5.40;99.90;;;5.51;100.00;101151.06;5051535;28;20033;-72
2023/04/20 02:34:51;;;;;;;15.90;5.95;;;5.40;99.90;;;5.48;100.00;101152.25;5053778;28;20048;-73
2023/04/20 02:37:17;;;;;;;16.98;6.60;;;5.50;99.90;;;5.49;100.00;101147.69;5065539;28;20407;-73
2023/04/20 02:39:43;;;;;;;12.95;5.93;;;5.50;99.90;;;5.38;100.00;101148.91;5072310;28;20040;-73
2023/04/20 02:42:09;;;;;;;15.23;6.20;;;5.40;99.90;;;5.44;100.00;101145.50;5063541;28;20037;-73
2023/04/20 02:44:35;;;;;;;13.25;6.20;;;5.50;99.90;;;5.26;100.00;101151.91;5054271;28;20135;-73
2023/04/20 02:47:02;;;;;;;11.43;5.97;;;5.50;99.90;;;5.20;100.00;101149.91;5057993;28;20043;-73
2023/04/20 02:49:28;;;;;;;11.65;6.50;;;5.40;99.90;;;5.24;100.00;101142.31;5055379;28;20107;-73
2023/04/20 02:51:54;;;;;;;12.48;6.25;;;5.40;99.90;;;5.31;100.00;101146.88;5054131;28;20403;-73
2023/04/20 02:54:20;;;;;;;11.82;6.18;;;5.40;99.90;;;5.30;100.00;101139.78;5054944;28;20035;-73
2023/04/20 02:56:46;;;;;;;12.70;6.20;;;5.40;99.90;;;5.27;100.00;101137.38;5055906;28;20048;-73
2023/04/20 02:59:11;;;;;;;13.23;6.35;;;5.40;99.90;;;5.33;100.00;101141.28;5061784;28;20039;-73
2023/04/20 03:01:37;;;;;;;12.75;6.43;;;5.40;99.90;;;5.30;100.00;101137.06;5059642;28;20033;-73
2023/04/20 03:04:09;;;;;;;14.52;6.72;;;5.40;99.90;;;5.31;100.00;101136.06;5067466;28;20127;-73
2023/04/20 03:06:41;;;;;;;15.57;6.68;;;5.40;99.90;;;5.16;100.00;101121.50;5056792;28;20029;-73
2023/04/20 03:09:13;;;;;;;14.00;6.50;;;5.40;99.90;;;5.30;100.00;101128.94;5054059;28;20549;-73
2023/04/20 03:11:56;;;;;;;13.45;6.57;;;5.40;99.90;;;5.32;100.00;101135.03;5080325;28;20116;-73
2023/04/20 03:14:45;;;;;;;14.23;6.43;;;5.40;99.90;;;5.28;100.00;101130.94;5055891;28;20497;-73
2023/04/20 03:17:11;;;;;;;12.45;6.22;;;5.40;99.90;;;5.29;100.00;101139.94;5059260;28;20028;-74
2023/04/20 03:19:37;;;;;;;10.93;6.05;;;5.40;99.90;;;5.31;100.00;101136.06;5066158;28;20419;-73
2023/04/20 03:22:04;;;;;;;13.50;6.75;;;5.30;99.90;;;5.30;100.00;101144.31;5060896;28;20025;-73
2023/04/20 03:24:31;;;;;;;16.55;7.22;;;5.30;99.90;;;5.32;100.00;101137.75;5065179;28;20050;-73
2023/04/20 03:27:00;;;;;;;12.73;6.28;;;5.30;99.90;;;5.33;100.00;101136.72;5063602;28;20672;-73
2023/04/20 03:29:40;;;;;;;14.20;6.88;;;5.30;99.90;;;5.38;100.00;101141.59;5058676;28;20050;-73
2023/04/20 03:32:06;;;;;;;13.90;6.95;;;5.30;99.90;;;5.38;100.00;101147.00;5070753;28;20036;-73
2023/04/20 03:34:32;;;;;;;12.98;6.75;;;5.40;99.90;;;5.39;100.00;101147.88;5070853;28;20036;-73
2023/04/20 03:36:58;;;;;;;13.80;6.40;;;5.40;99.90;;;5.28;100.00;101140.94;5055797;28;20033;-73
2023/04/20 03:39:23;;;;;;;13.40;6.57;;;5.40;99.90;;;5.45;100.00;101142.63;5065348;28;20040;-73
2023/04/20 03:41:49;;;;;;;13.38;7.15;;;5.40;99.90;;;5.33;100.00;101125.91;5057250;28;20036;-73
2023/04/20 03:44:15;;;;;;;13.50;6.97;;;5.40;99.90;;;5.43;100.00;101143.81;5061314;28;20037;-74
2023/04/20 03:46:41;;;;;;;14.77;6.95;;;5.40;99.90;;;5.43;100.00;101144.63;5062699;28;20061;-72
2023/04/20 03:49:07;;;;;;;13.60;6.95;;;5.40;99.90;;;5.40;100.00;101147.69;5069105;28;20074;-73
2023/04/20 03:51:33;;;;;;;12.15;6.18;;;5.40;99.90;;;5.44;100.00;101140.94;5071324;28;20048;-72
2023/04/20 03:53:58;;;;;;;14.38;6.50;;;5.40;99.90;;;5.49;100.00;101145.00;5070098;28;20506;-73
2023/04/20 03:56:26;;;;;;;14.82;7.00;;;5.40;99.90;;;5.52;100.00;101141.94;5071728;28;20051;-73
2023/04/20 03:58:52;;;;;;;16.05;6.97;;;5.40;99.90;;;5.49;100.00;101148.53;5065965;28;20028;-73
2023/04/20 04:01:21;;;;;;;12.43;7.20;;;5.40;99.90;;;5.51;100.00;101146.50;5065394;28;20062;-73
2023/04/20 04:03:49;;;;;;;12.40;6.78;;;5.40;99.90;;;5.58;100.00;101146.66;5072137;28;20044;-73
2023/04/20 04:06:15;;;;;;;14.38;7.13;;;5.50;99.90;;;5.64;100.00;101145.13;5065981;28;20036;-73
2023/04/20 04:08:41;;;;;;;17.20;7.28;;;5.50;99.90;;;5.63;100.00;101144.28;5079941;28;20121;-73
2023/04/20 04:11:07;;;;;;;13.10;6.75;;;5.50;99.90;;;5.58;100.00;101139.41;5073390;28;20032;-76
2023/04/20 04:13:33;;;;;;;15.77;7.30;;;5.50;99.90;;;5.59;100.00;101138.38;5070721;28;20093;-73
2023/04/20 04:15:59;;;;;;;13.60;6.55;;;5.50;99.90;;;5.60;100.00;101150.91;5065851;28;20387;-73
2023/04/20 04:18:31;;;;;;;12.20;7.53;;;5.50;99.90;;;5.66;100.00;101153.94;5063029;28;20038;-73
2023/04/20 04:20:59;;;;;;;17.65;7.57;;;5.50;99.90;;;5.55;100.00;101152.41;5076406;28;20285;-73
2023/04/20 04:23:25;;;;;;;16.15;7.18;;;5.50;99.90;;;5.60;100.00;101148.19;5067440;28;20032;-73
2023/04/20 04:26:00;;;;;;;13.60;6.72;;;5.50;99.90;;;5.58;100.00;101149.38;5065678;28;20396;-73
2023/04/20 04:28:26;;;;;;;12.90;7.30;;;5.60;99.90;;;5.66;100.00;101151.22;5048698;28;20036;-73
2023/04/20 04:31:07;;;;;;;12.95;7.35;;;5.60;99.90;;;5.70;100.00;101160.69;5054456;28;20043;-74
2023/04/20 04:33:33;;;;;;;16.70;7.72;;;5.60;99.90;;;5.71;100.00;101148.84;5036216;28;20032;-73
2023/04/20 04:36:01;;;;;;;15.40;7.95;;;5.60;99.90;;;5.73;100.00;101152.22;5068790;28;20036;-73
2023/04/20 04:38:27;;;;;;;13.00;7.32;;;5.60;99.90;;;5.74;100.00;101152.06;5053554;28;20033;-73
2023/04/20 04:40:53;;;;;;;13.48;7.22;;;5.60;99.90;;;5.76;100.00;101147.31;5057464;28;20101;-75
2023/04/20 04:43:19;;;;;;;14.02;7.05;;;5.60;99.90;;;5.70;100.00;101126.34;5058227;28;20394;-76
2023/04/20 04:45:54;;;;;;;11.57;7.05;;;5.70;99.90;;;5.73;100.00;101146.81;5060436;28;20040;-73
2023/04/20 04:48:20;;;;;;;17.40;7.57;;;5.70;99.90;;;5.79;100.00;101139.84;5058802;28;20438;-74
2023/04/20 04:50:46;;;;;;;16.50;6.78;;;5.70;99.90;;;5.70;100.00;101144.44;5066040;28;20037;-73
2023/04/20 04:53:11;;;;;;;17.67;7.53;;;5.70;99.90;;;5.76;100.00;101151.88;5067583;28;20044;-74
2023/04/20 04:55:37;;;;;;;15.60;7.68;;;5.70;99.90;;;5.72;100.00;101148.69;5059764;28;20033;-73
2023/04/20 04:58:03;;;;;;;13.30;7.82;;;5.80;99.90;;;5.73;100.00;101144.97;5052067;28;20040;-74
2023/04/20 05:00:30;;;;;;;14.18;7.05;;;5.80;99.90;;;5.77;100.00;101156.28;5064131;28;20494;-74
2023/04/20 05:02:56;;;;;;;14.75;7.03;;;5.80;99.90;;;5.80;100.00;101155.91;5059482;28;20048;-74
2023/04/20 05:05:22;;;;;;;15.32;8.38;;;5.80;99.90;;;5.78;100.00;101152.53;5069730;28;20118;-75
2023/04/20 05:07:48;;;;;;;13.15;7.82;;;5.80;99.90;;;5.83;100.00;101147.44;5063583;28;20566;-74
2023/04/20 05:10:13;;;;;;;15.10;7.80;;;5.80;99.90;;;5.87;100.00;101162.34;5060798;28;20407;-74
2023/04/20 05:12:39;;;;;;;14.65;7.78;;;5.90;99.90;;;5.84;100.00;101165.41;5069980;28;20044;-74
2023/04/20 05:15:06;;;;;;;17.02;7.45;;;5.90;99.90;;;5.92;100.00;101166.41;5069074;28;20033;-73
2023/04/20 05:17:31;;;;;;;14.85;7.90;;;5.90;99.90;;;5.83;100.00;101160.97;5065327;28;20093;-73
2023/04/20 05:19:57;;;;;;;18.05;8.50;;;5.90;99.90;;;5.88;100.00;101163.19;5058393;28;20044;-74
2023/04/20 05:22:23;;;;;;;16.25;8.05;;;5.90;99.90;;;5.87;100.00;101162.34;5068104;28;20092;-74
2023/04/20 05:24:49;;;;;;;16.48;7.55;;;5.90;99.90;;;5.98;100.00;101171.13;5056885;28;20052;-74
2023/04/20 05:27:14;;;;;;;16.85;8.52;;;5.90;99.90;;;5.96;100.00;101168.56;5061534;28;20146;-74
2023/04/20 05:29:40;;;;;;;18.33;9.23;;;6.00;99.90;;;5.96;100.00;101168.56;5064818;28;20710;-75
2023/04/20 05:32:06;;;;;;;13.13;7.80;;;6.00;99.90;;;5.98;100.00;101163.84;5069030;28;20044;-75
2023/04/20 05:34:32;;;;;;;14.75;7.68;;;6.00;99.90;;;6.14;100.00;101172.97;5059603;28;20037;-75
2023/04/20 05:36:58;;;;;;;14.68;7.15;;;6.10;99.90;;;6.14;100.00;101173.81;5063444;28;20040;-74
2023/04/20 05:39:24;;;;;;;13.07;6.90;;;6.20;99.90;;;6.17;100.00;101178.88;5052709;28;20350;-74
2023/04/20 05:41:50;;;;;;;12.70;7.32;;;6.20;99.90;;;6.04;100.00;101178.56;5068735;28;20043;-75
2023/04/20 05:44:15;;;;;;;13.13;7.53;;;6.10;99.90;;;6.14;100.00;101181.09;5063766;28;20515;-75
2023/04/20 05:46:41;;;;;;;15.95;8.02;;;6.20;99.90;;;6.14;100.00;101190.06;5065203;28;20032;-75
2023/04/20 05:49:07;;;;;;;16.52;8.05;;;6.20;99.90;;;6.28;100.00;101187.63;5069757;28;20059;-75
2023/04/20 05:51:33;;;;;;;15.98;8.10;;;6.30;99.90;;;6.39;100.00;101189.13;5064667;28;20076;-76
2023/04/20 05:54:00;;;;;;;14.60;8.00;;;6.40;99.90;;;6.35;100.00;101196.75;5050358;28;20044;-75
2023/04/20 05:56:26;;;;;;;11.77;7.78;;;6.40;99.90;;;6.40;100.00;101193.53;5056024;28;20036;-75
2023/04/20 05:58:54;;;;;;;14.10;7.88;;;6.40;99.90;;;6.41;100.00;101185.22;5065979;28;20044;-75
2023/04/20 06:01:20;;;;;;;13.77;7.43;;;6.40;99.90;;;6.47;100.00;101189.94;5066770;28;20102;-75
2023/04/20 06:03:47;;;;;;;13.00;7.63;;;6.50;99.90;;;6.56;100.00;101187.19;5063787;28;20037;-75
2023/04/20 06:06:14;;;;;;;14.40;7.68;;;6.50;99.90;;;6.64;100.00;101189.88;5059680;28;20051;-75
2023/04/20 06:08:39;;;;;;;13.32;7.75;;;6.60;99.90;;;6.68;100.00;101168.66;5068369;28;20044;-75
2023/04/20 06:11:05;;;;;;;13.43;7.07;;;6.70;99.90;;;7.00;100.00;101185.75;5065551;28;20055;-75
2023/04/20 06:13:31;;;;;;;13.55;7.22;;;6.90;99.90;;;7.12;100.00;101183.44;5072924;28;20471;-75
2023/04/20 06:15:57;;;;;;;15.02;7.95;;;7.10;99.90;;;7.18;100.00;101180.88;5065927;28;20435;-75
2023/04/20 06:18:22;;;;;;;16.10;7.60;;;7.20;99.90;;;7.30;100.00;101189.44;5059506;28;20024;-75
2023/04/20 06:20:48;;;;;;;12.70;7.45;;;7.30;99.90;;;7.48;100.00;101183.69;5053357;28;20103;-75
2023/04/20 06:23:14;;;;;;;13.88;8.00;;;7.40;99.90;;;7.55;100.00;101183.78;5065013;28;20476;-74
2023/04/20 06:25:40;;;;;;;12.02;7.43;;;7.50;99.90;;;7.47;100.00;101183.88;5067202;28;20090;-76
2023/04/20 06:28:06;;;;;;;14.75;8.38;;;7.60;99.90;;;7.43;100.00;101193.41;5068387;28;20040;-75
2023/04/20 06:30:33;;;;;;;16.30;8.50;;;7.50;99.90;;;7.24;100.00;101192.00;5058447;28;20029;-75
2023/04/20 06:33:00;;;;;;;13.57;8.23;;;7.30;99.90;;;7.04;100.00;101192.53;5068526;28;20044;-75
2023/04/20 06:35:25;;;;;;;15.07;8.75;;;7.10;99.90;;;6.98;100.00;101188.66;5055129;28;20476;-75
2023/04/20 06:37:51;;;;;;;18.35;9.50;;;7.00;99.90;;;6.81;100.00;101187.91;5067489;28;20051;-74
2023/04/20 06:40:17;;;;;;;19.92;9.82;;;6.90;99.90;;;6.83;100.00;101198.56;5073510;28;20040;-75
2023/04/20 06:42:44;;;;;;;17.63;10.40;;;7.00;99.90;;;6.99;100.00;101187.63;5072751;28;20048;-75
2023/04/20 06:45:10;;;;;;;17.83;9.70;;;7.00;99.90;;;7.23;100.00;101196.63;5068825;28;20032;-75
2023/04/20 06:47:36;;;;;;;15.07;9.73;;;7.20;99.90;;;7.41;100.00;101200.88;5052920;28;20043;-76
2023/04/20 06:50:08;;;;;;;20.17;10.82;;;7.50;99.90;;;7.30;100.00;101194.03;5063866;28;20049;-76
2023/04/20 06:52:38;;;;;;;14.38;9.30;;;7.50;99.90;;;7.34;100.00;101192.63;5067685;28;20032;-75
2023/04/20 06:55:04;;;;;;;14.82;8.88;;;7.50;99.90;;;7.60;100.00;101191.41;5072337;28;20048;-75
2023/04/20 06:57:30;;;;;;;15.90;9.40;;;7.60;99.90;;;7.70;100.00;101191.97;5068629;28;20392;-75
2023/04/20 06:59:57;;;;;;;17.52;9.25;;;7.80;99.90;;;7.69;100.00;101126.97;5063500;28;20041;-75
2023/04/20 07:02:23;;;;;;;14.57;9.52;;;8.00;99.90;;;8.15;100.00;101199.34;5072478;28;20590;-75
2023/04/20 07:04:49;;;;;;;14.40;8.50;;;8.10;99.90;;;8.29;100.00;101186.75;5063630;28;20070;-75
2023/04/20 07:07:15;;;;;;;12.88;8.45;;;8.20;99.90;;;8.18;100.00;101191.63;5061074;28;20099;-76
2023/04/20 07:09:41;;;;;;;13.15;8.35;;;8.20;99.90;;;8.06;100.00;101191.25;5063070;28;20082;-75
2023/04/20 07:12:08;;;;;;;12.15;7.82;;;8.10;99.90;;;8.02;100.00;101192.66;5068395;28;20495;-74
2023/04/20 07:14:33;;;;;;;14.13;7.85;;;8.10;99.90;;;7.82;100.00;101186.94;5072845;28;20079;-75
2023/04/20 07:16:59;;;;;;;12.13;8.10;;;8.00;99.90;;;7.63;100.00;101194.56;5068192;28;20041;-76
2023/04/20 07:19:25;;;;;;;15.40;8.43;;;7.80;99.90;;;7.72;100.00;101189.09;5071384;28;20041;-75
2023/04/20 07:21:50;;;;;;;14.68;8.50;;;7.70;99.90;;;7.99;100.00;101187.59;5064048;28;20076;-75
2023/04/20 07:24:16;;;;;;;12.63;8.13;;;7.80;99.90;;;8.43;100.00;101188.63;5068504;28;20040;-75
2023/04/20 07:26:42;;;;;;;12.38;8.00;;;8.20;99.90;;;8.85;99.65;101182.66;5071632;28;20052;-75
2023/04/20 07:29:07;;;;;;;12.85;7.20;;;8.60;99.90;;;9.23;96.30;101187.84;5072565;28;20090;-75
2023/04/20 07:31:33;;;;;;;13.63;7.95;;;8.90;99.90;;;9.50;94.50;101185.38;5071811;28;20036;-76
2023/04/20 07:33:59;;;;;;;14.43;7.95;;;9.30;99.90;;;9.50;91.54;101174.47;5071779;28;20036;-75
2023/04/20 07:36:25;;;;;;;16.20;8.00;;;9.50;99.90;;;9.24;92.80;101186.81;5057052;28;20048;-75
2023/04/20 07:38:50;;;;;;;13.57;8.25;;;9.50;99.90;;;8.89;93.23;101189.41;5072241;28;20411;-77
2023/04/20 07:41:16;;;;;;;12.95;7.95;;;9.30;99.90;;;9.15;92.56;101186.13;5066703;28;20037;-75
2023/04/20 07:43:43;;;;;;;13.73;8.40;;;9.30;99.90;;;9.09;93.66;101192.31;5063954;28;20037;-76
2023/04/20 07:46:09;;;;;;;13.23;8.05;;;9.20;99.90;;;8.98;92.32;101181.97;5060248;28;20516;-76
2023/04/20 07:48:35;;;;;;;12.32;7.38;;;9.20;99.90;;;8.85;88.30;101185.38;5053519;28;20064;-77
2023/04/20 07:51:02;;;;;;;12.23;7.63;;;9.00;99.90;;;8.56;89.69;101198.03;5061557;28;20067;-75
2023/04/20 07:53:28;;;;;;;11.40;7.72;;;8.90;99.90;;;8.52;93.40;101199.44;5068171;28;20036;-76
2023/04/20 07:55:54;;;;;;;12.98;7.88;;;8.70;99.90;;;8.90;92.71;101202.81;5060121;28;20140;-76
2023/04/20 07:58:20;;;;;;;12.93;7.45;;;9.00;99.90;;;9.57;90.25;101180.84;5065238;28;20111;-76
2023/04/20 08:00:46;;;;;;;11.65;6.78;;;9.50;99.90;;;10.16;83.20;101186.91;5065708;28;20044;-76
2023/04/20 08:03:13;;;;;;;11.48;7.38;;;10.10;99.90;;;10.18;82.40;101187.53;5064205;28;20055;-76
2023/04/20 08:05:42;;;;;;;13.25;7.43;;;10.40;99.90;;;9.97;80.83;101187.63;5061390;28;20116;-76
2023/04/20 08:08:08;;;;;;;9.80;6.63;;;10.30;99.90;;;10.11;80.41;101191.25;5065636;28;20039;-76
2023/04/20 08:10:33;;;;;;;11.52;7.00;;;10.40;99.90;;;9.67;81.29;101144.22;5067348;28;20037;-76
2023/04/20 08:12:59;;;;;;;9.68;6.43;;;10.20;99.90;;;9.51;80.21;101181.59;5053591;28;20090;-75
2023/04/20 08:15:25;;;;;;;12.55;7.05;;;10.00;99.90;;;9.59;82.29;101191.53;5072957;28;20076;-75
2023/04/20 08:17:51;;;;;;;11.55;6.88;;;10.00;99.90;;;9.68;81.88;101187.63;5052358;28;20043;-76
2023/04/20 08:20:19;;;;;;;10.20;6.55;;;10.00;99.90;;;10.21;79.20;101189.88;5075638;28;20033;-76
2023/04/20 08:22:44;;;;;;;10.65;7.15;;;10.40;99.90;;;10.00;80.15;101192.66;5070300;28;20036;-75
2023/04/20 08:25:10;;;;;;;8.43;6.45;;;10.40;99.90;;;10.45;80.93;101200.50;5069171;28;20040;-76
2023/04/20 08:27:36;;;;;;;9.65;6.50;;;10.60;99.90;;;10.88;72.80;101174.84;5066685;28;20070;-76
2023/04/20 08:30:04;;;;;;;10.18;6.45;;;11.00;99.90;;;10.86;72.48;101182.38;5057336;28;20403;-77
2023/04/20 08:32:30;;;;;;;10.70;6.78;;;11.20;99.90;;;10.64;71.90;101182.56;5069957;28;20029;-75
2023/04/20 08:34:56;;;;;;;11.30;6.95;;;11.20;99.90;;;11.16;72.55;101196.53;5071070;28;20039;-76
2023/04/20 08:37:22;;;;;;;10.60;6.05;;;11.30;99.90;;;10.97;68.01;101187.25;5065955;28;20041;-77
2023/04/20 08:39:47;;;;;;;10.73;6.97;;;11.50;99.90;;;10.90;71.42;101192.69;5065338;28;20036;-78
2023/04/20 08:42:15;;;;;;;9.10;6.40;;;11.30;99.90;;;11.34;70.64;101192.38;5063401;28;20052;-76
2023/04/20 08:44:41;;;;;;;10.75;6.95;;;11.50;99.90;;;11.08;68.42;101183.91;5066052;28;20044;-76
2023/04/20 08:47:12;;;;;;;9.95;6.38;;;11.50;99.90;;;11.34;67.16;101192.38;5063608;28;20056;-76
2023/04/20 08:49:39;;;;;;;10.63;6.72;;;11.50;99.90;;;11.24;66.56;101181.84;5081233;28;20044;-81
2023/04/20 08:52:06;;;;;;;8.95;6.07;;;11.50;99.90;;;11.31;66.87;101185.41;5068787;28;20055;-80
2023/04/20 08:54:32;;;;;;;11.87;6.60;;;11.50;99.90;;;11.08;67.08;101180.34;5064939;28;20045;-77
2023/04/20 08:56:58;;;;;;;9.77;6.50;;;11.40;99.90;;;11.05;68.47;101189.78;5047167;28;20062;-77
2023/04/20 08:59:24;;;;;;;10.35;6.85;;;11.30;99.90;;;11.34;67.29;101184.19;5065692;28;20086;-76
2023/04/20 09:01:50;;;;;;;7.75;6.15;;;11.40;99.90;;;11.43;64.74;101184.81;5074221;28;20476;-76
2023/04/20 09:04:19;;;;;;;10.40;6.47;;;11.50;99.90;;;10.93;65.81;101172.34;5067082;28;20039;-76
2023/04/20 09:06:50;;;;;;;9.80;6.32;;;11.40;99.90;;;10.87;67.65;101190.38;5064988;28;20116;-76
2023/04/20 09:09:21;;;;;;;9.68;6.35;;;11.20;99.90;;;10.89;68.46;101185.56;5065930;28;20467;-75
2023/04/20 09:11:58;;;;;;;8.70;6.15;;;11.10;99.90;;;11.16;68.78;101188.34;5063348;28;20123;-76
2023/04/20 09:14:23;;;;;;;9.95;6.10;;;11.20;99.90;;;11.16;62.43;101171.13;5063113;28;20029;-76
2023/04/20 09:16:51;;;;;;;8.88;5.90;;;11.30;99.90;;;10.75;64.33;101179.22;5065461;28;20480;-75
2023/04/20 09:19:24;;;;;;;8.85;5.97;;;11.10;99.90;;;10.05;63.90;101169.22;5060853;28;20345;-75
2023/04/20 09:21:53;;;;;;;6.97;5.32;;;10.80;99.90;;;9.89;65.24;101175.84;5059843;28;20460;-75
2023/04/20 09:24:21;;;;;;;7.95;5.38;;;10.50;99.90;;;10.32;66.92;101185.72;5059657;28;20430;-76
2023/04/20 09:26:47;;;;;;;8.60;5.85;;;10.60;99.90;;;10.67;66.75;101195.78;5065461;28;20124;-75
2023/04/20 09:29:22;;;;;;;7.88;4.90;;;10.80;99.90;;;10.80;62.05;101175.88;5064133;28;20124;-75
2023/04/20 09:31:49;;;;;;;8.02;5.22;;;11.00;99.90;;;10.53;60.93;101169.47;5063665;28;20131;-74
2023/04/20 09:34:15;;;;;;;6.30;4.53;;;11.00;99.90;;;10.71;62.38;101177.94;5067364;28;20400;-78
2023/04/20 09:36:50;;;;;;;7.20;4.68;;;11.00;99.90;;;10.67;60.82;101175.81;5062479;28;20074;-75
2023/04/20 09:39:25;;;;;;;6.60;4.57;;;11.10;99.90;;;10.87;62.93;101175.88;5066043;28;20526;-76
2023/04/20 09:41:51;;;;;;;5.82;4.25;;;11.20;99.90;;;10.89;60.26;101171.91;5060761;28;20040;-74
2023/04/20 09:44:18;;;;;;;6.05;4.07;;;11.30;99.90;;;10.85;57.58;101135.16;5060107;28;20033;-74
2023/04/20 09:46:45;;;;;;;6.93;4.45;;;11.30;99.90;;;10.76;60.63;101183.63;5060058;28;20033;-74
2023/04/20 09:49:13;;;;;;;6.83;4.63;;;11.20;99.90;;;10.75;60.73;101173.75;5062430;28;20540;-76
2023/04/20 09:51:45;;;;;;;6.50;4.88;;;11.20;99.90;;;11.13;58.80;101175.09;5058577;28;20357;-75
2023/04/20 09:54:12;;;;;;;8.30;5.20;;;11.40;99.90;;;11.42;60.89;101183.13;5054114;28;20036;-76
2023/04/20 09:56:39;;;;;;;6.78;5.40;;;11.60;99.90;;;11.73;58.56;101166.09;5069558;28;20028;-74
2023/04/20 09:59:05;;;;;;;11.00;7.13;;;12.00;99.90;;;11.62;59.06;101183.13;5052468;28;20108;-74
2023/04/20 10:01:34;;;;;;;8.73;6.38;;;12.10;99.90;;;11.73;59.31;101182.47;5069795;28;20103;-77
2023/04/20 10:04:02;;;;;;;7.50;5.32;;;12.10;99.90;;;12.15;57.61;101174.03;5052679;28;20407;-78
2023/04/20 10:06:34;;;;;;;7.57;5.28;;;12.30;99.90;;;12.05;54.83;101154.50;5039302;28;20025;-77
2023/04/20 10:09:07;;;;;;;6.97;5.18;;;12.40;99.70;;;11.76;56.31;101173.84;5068821;28;20072;-75
2023/04/20 10:11:41;;;;;;;8.52;5.35;;;12.30;99.90;;;11.84;57.66;101191.09;5067302;28;20384;-75